sensor_id;sensor_type;location;lat;lon;timestamp;temperature;humidity
3816;DHT22;1923;48.154;11.536;2023-04-01T00:00:57;9.50;99.90
3816;DHT22;1923;48.154;11.536;2023-04-01T00:03:27;9.60;99.90
3816;DHT22;1923;48.154;11.536;2023-04-01T00:05:57;9.60;99.90
3816;DHT22;1923;48.154;11.536;2023-04-01T00:08:28;9.70;99.90
3816;DHT22;1923;48.154;11.536;2023-04-01T00:10:58;9.80;99.90
3816;DHT22;1923;48.154;11.536;2023-04-01T00:13:27;9.80;99.90
3816;DHT22;1923;48.154;11.536;2023-04-01T00:15:56;9.70;99.90
3816;DHT22;1923;48.154;11.536;2023-04-01T00:18:26;9.80;99.90
3816;DHT22;1923;48.154;11.536;2023-04-01T00:20:55;9.90;99.90
3816;DHT22;1923;48.154;11.536;2023-04-01T00:23:24;9.60;99.90
3816;DHT22;1923;48.154;11.536;2023-04-01T00:25:53;9.60;99.90
3816;DHT22;1923;48.154;11.536;2023-04-01T00:28:23;9.50;99.90
3816;DHT22;1923;48.154;11.536;2023-04-01T00:30:51;9.50;99.90
3816;DHT22;1923;48.154;11.536;2023-04-01T00:33:20;9.40;99.90
3816;DHT22;1923;48.154;11.536;2023-04-01T00:35:48;9.30;99.90
3816;DHT22;1923;48.154;11.536;2023-04-01T00:38:16;9.20;99.90
3816;DHT22;1923;48.154;11.536;2023-04-01T00:40:46;9.20;99.90
3816;DHT22;1923;48.154;11.536;2023-04-01T00:43:15;9.10;99.90
3816;DHT22;1923;48.154;11.536;2023-04-01T00:45:48;9.00;99.90
3816;DHT22;1923;48.154;11.536;2023-04-01T00:48:17;9.10;99.90
3816;DHT22;1923;48.154;11.536;2023-04-01T00:50:49;9.00;99.90
3816;DHT22;1923;48.154;11.536;2023-04-01T00:53:19;9.00;99.90
3816;DHT22;1923;48.154;11.536;2023-04-01T00:55:51;9.00;99.90
3816;DHT22;1923;48.154;11.536;2023-04-01T00:58:24;9.00;99.90
3816;DHT22;1923;48.154;11.536;2023-04-01T01:00:56;8.90;99.90
3816;DHT22;1923;48.154;11.536;2023-04-01T01:03:26;9.00;99.90
3816;DHT22;1923;48.154;11.536;2023-04-01T01:09:22;9.00;99.90
3816;DHT22;1923;48.154;11.536;2023-04-01T01:12:01;9.00;99.90
3816;DHT22;1923;48.154;11.536;2023-04-01T01:14:45;9.00;99.90
3816;DHT22;1923;48.154;11.536;2023-04-01T01:17:23;9.00;99.90
3816;DHT22;1923;48.154;11.536;2023-04-01T01:20:11;9.00;99.90
3816;DHT22;1923;48.154;11.536;2023-04-01T01:23:04;9.10;99.90
3816;DHT22;1923;48.154;11.536;2023-04-01T01:25:41;9.10;99.90
3816;DHT22;1923;48.154;11.536;2023-04-01T01:28:24;9.20;99.90
3816;DHT22;1923;48.154;11.536;2023-04-01T01:31:02;9.20;99.90
3816;DHT22;1923;48.154;11.536;2023-04-01T01:33:54;9.20;99.90
3816;DHT22;1923;48.154;11.536;2023-04-01T01:36:31;9.20;99.90
3816;DHT22;1923;48.154;11.536;2023-04-01T01:39:03;9.40;99.90
3816;DHT22;1923;48.154;11.536;2023-04-01T01:41:32;9.50;99.90
3816;DHT22;1923;48.154;11.536;2023-04-01T01:44:03;9.60;99.90
3816;DHT22;1923;48.154;11.536;2023-04-01T01:46:33;9.50;99.90
3816;DHT22;1923;48.154;11.536;2023-04-01T01:49:02;9.30;99.90
3816;DHT22;1923;48.154;11.536;2023-04-01T01:51:32;9.10;99.90
3816;DHT22;1923;48.154;11.536;2023-04-01T01:54:00;9.10;99.90
3816;DHT22;1923;48.154;11.536;2023-04-01T01:56:29;9.10;99.90
3816;DHT22;1923;48.154;11.536;2023-04-01T01:59:02;9.10;99.90
3816;DHT22;1923;48.154;11.536;2023-04-01T02:01:33;9.10;99.90
3816;DHT22;1923;48.154;11.536;2023-04-01T02:04:04;9.10;99.90
3816;DHT22;1923;48.154;11.536;2023-04-01T02:06:38;9.00;99.90
3816;DHT22;1923;48.154;11.536;2023-04-01T02:09:08;9.10;99.90
3816;DHT22;1923;48.154;11.536;2023-04-01T02:11:41;9.00;99.90
3816;DHT22;1923;48.154;11.536;2023-04-01T02:14:14;9.10;99.90
3816;DHT22;1923;48.154;11.536;2023-04-01T09:24:39;16.20;99.90
3816;DHT22;1923;48.154;11.536;2023-04-01T09:27:26;18.30;97.00
3816;DHT22;1923;48.154;11.536;2023-04-01T09:33:10;17.20;97.60
3816;DHT22;1923;48.154;11.536;2023-04-01T09:35:46;16.90;98.10
3816;DHT22;1923;48.154;11.536;2023-04-01T09:38:29;16.70;98.00
3816;DHT22;1923;48.154;11.536;2023-04-01T09:41:04;16.80;97.90
3816;DHT22;1923;48.154;11.536;2023-04-01T09:43:48;16.90;98.20
3816;DHT22;1923;48.154;11.536;2023-04-01T09:46:23;17.10;97.20
3816;DHT22;1923;48.154;11.536;2023-04-01T09:49:20;17.60;99.10
3816;DHT22;1923;48.154;11.536;2023-04-01T09:52:03;18.50;97.10
3816;DHT22;1923;48.154;11.536;2023-04-01T09:54:48;18.80;95.60
3816;DHT22;1923;48.154;11.536;2023-04-01T09:57:47;18.50;95.30
3816;DHT22;1923;48.154;11.536;2023-04-01T10:00:28;18.20;95.70
3816;DHT22;1923;48.154;11.536;2023-04-01T10:03:31;17.70;95.90
3816;DHT22;1923;48.154;11.536;2023-04-01T10:12:50;16.70;96.80
3816;DHT22;1923;48.154;11.536;2023-04-01T10:15:44;16.70;97.00
3816;DHT22;1923;48.154;11.536;2023-04-01T10:22:00;16.90;97.30
3816;DHT22;1923;48.154;11.536;2023-04-01T10:24:56;17.00;96.70
3816;DHT22;1923;48.154;11.536;2023-04-01T10:27:50;17.50;96.40
3816;DHT22;1923;48.154;11.536;2023-04-01T10:30:37;17.60;95.50
3816;DHT22;1923;48.154;11.536;2023-04-01T10:36:41;16.90;96.20
3816;DHT22;1923;48.154;11.536;2023-04-01T10:39:45;16.80;96.60
3816;DHT22;1923;48.154;11.536;2023-04-01T10:42:52;16.50;97.10
3816;DHT22;1923;48.154;11.536;2023-04-01T10:45:57;16.40;97.20
3816;DHT22;1923;48.154;11.536;2023-04-01T10:48:46;16.10;97.60
3816;DHT22;1923;48.154;11.536;2023-04-01T10:51:44;15.90;98.40
3816;DHT22;1923;48.154;11.536;2023-04-01T10:54:28;15.80;98.90
3816;DHT22;1923;48.154;11.536;2023-04-01T10:57:02;15.50;98.90
3816;DHT22;1923;48.154;11.536;2023-04-01T11:12:51;14.50;99.90
3816;DHT22;1923;48.154;11.536;2023-04-01T11:15:41;14.20;99.90
3816;DHT22;1923;48.154;11.536;2023-04-01T11:21:50;14.30;99.90
3816;DHT22;1923;48.154;11.536;2023-04-01T11:24:52;14.40;99.90
3816;DHT22;1923;48.154;11.536;2023-04-01T11:27:42;14.60;99.90
3816;DHT22;1923;48.154;11.536;2023-04-01T11:30:22;14.70;99.90
3816;DHT22;1923;48.154;11.536;2023-04-01T11:33:00;14.90;99.90
3816;DHT22;1923;48.154;11.536;2023-04-01T11:35:55;14.80;99.90
3816;DHT22;1923;48.154;11.536;2023-04-01T11:41:27;14.70;99.90
3816;DHT22;1923;48.154;11.536;2023-04-01T11:44:11;14.60;99.90
3816;DHT22;1923;48.154;11.536;2023-04-01T11:47:01;14.70;99.90
3816;DHT22;1923;48.154;11.536;2023-04-01T11:49:41;14.60;99.90
3816;DHT22;1923;48.154;11.536;2023-04-01T11:55:24;14.30;99.90
3816;DHT22;1923;48.154;11.536;2023-04-01T11:58:14;13.90;99.90
3816;DHT22;1923;48.154;11.536;2023-04-01T12:00:59;13.60;99.90
3816;DHT22;1923;48.154;11.536;2023-04-01T12:06:49;13.10;99.90
3816;DHT22;1923;48.154;11.536;2023-04-01T12:09:24;12.70;99.90
3816;DHT22;1923;48.154;11.536;2023-04-01T12:12:09;12.70;99.90
3816;DHT22;1923;48.154;11.536;2023-04-01T12:14:44;12.50;99.90
3816;DHT22;1923;48.154;11.536;2023-04-01T12:17:27;12.50;99.90
3816;DHT22;1923;48.154;11.536;2023-04-01T12:20:01;12.50;99.90
3816;DHT22;1923;48.154;11.536;2023-04-01T12:22:46;12.60;99.90
3816;DHT22;1923;48.154;11.536;2023-04-01T12:25:26;12.30;99.90
3816;DHT22;1923;48.154;11.536;2023-04-01T12:28:10;12.10;99.90
3816;DHT22;1923;48.154;11.536;2023-04-01T12:30:48;11.90;99.90
3816;DHT22;1923;48.154;11.536;2023-04-01T12:36:26;11.80;99.90
3816;DHT22;1923;48.154;11.536;2023-04-01T12:39:29;11.80;99.90
3816;DHT22;1923;48.154;11.536;2023-04-01T12:42:07;11.90;99.90
3816;DHT22;1923;48.154;11.536;2023-04-01T12:44:56;11.70;99.90
3816;DHT22;1923;48.154;11.536;2023-04-01T12:51:01;11.70;99.90
3816;DHT22;1923;48.154;11.536;2023-04-01T12:53:45;11.80;99.90
3816;DHT22;1923;48.154;11.536;2023-04-01T12:56:27;11.70;99.90
3816;DHT22;1923;48.154;11.536;2023-04-01T12:59:21;11.70;99.90
3816;DHT22;1923;48.154;11.536;2023-04-01T13:02:01;11.60;99.90
3816;DHT22;1923;48.154;11.536;2023-04-01T13:04:54;11.50;99.90
3816;DHT22;1923;48.154;11.536;2023-04-01T13:07:38;11.40;99.90
3816;DHT22;1923;48.154;11.536;2023-04-01T13:10:18;11.50;99.90
3816;DHT22;1923;48.154;11.536;2023-04-01T13:13:08;11.40;99.90
3816;DHT22;1923;48.154;11.536;2023-04-01T13:15:44;11.40;99.90
3816;DHT22;1923;48.154;11.536;2023-04-01T13:18:25;11.30;99.90
3816;DHT22;1923;48.154;11.536;2023-04-01T13:21:05;11.50;99.90
3816;DHT22;1923;48.154;11.536;2023-04-01T13:23:51;11.50;99.90
3816;DHT22;1923;48.154;11.536;2023-04-01T13:26:27;11.50;99.90
3816;DHT22;1923;48.154;11.536;2023-04-01T13:29:04;11.50;99.90
3816;DHT22;1923;48.154;11.536;2023-04-01T13:31:53;11.50;99.90
3816;DHT22;1923;48.154;11.536;2023-04-01T13:34:39;11.50;99.90
3816;DHT22;1923;48.154;11.536;2023-04-01T13:37:25;11.40;99.90
3816;DHT22;1923;48.154;11.536;2023-04-01T13:40:25;11.50;99.90
3816;DHT22;1923;48.154;11.536;2023-04-01T13:42:59;11.50;99.90
3816;DHT22;1923;48.154;11.536;2023-04-01T13:45:38;11.40;99.90
3816;DHT22;1923;48.154;11.536;2023-04-01T13:48:27;11.30;99.90
3816;DHT22;1923;48.154;11.536;2023-04-01T13:51:26;11.20;99.90
3816;DHT22;1923;48.154;11.536;2023-04-01T13:54:30;11.20;99.90
3816;DHT22;1923;48.154;11.536;2023-04-01T14:00:00;11.30;99.90
3816;DHT22;1923;48.154;11.536;2023-04-01T14:02:51;11.30;99.90
3816;DHT22;1923;48.154;11.536;2023-04-01T14:05:36;11.50;99.90
3816;DHT22;1923;48.154;11.536;2023-04-01T14:08:17;11.60;99.90
3816;DHT22;1923;48.154;11.536;2023-04-01T14:10:56;11.70;99.90
3816;DHT22;1923;48.154;11.536;2023-04-01T14:13:37;11.70;99.90
3816;DHT22;1923;48.154;11.536;2023-04-01T14:16:29;11.90;99.90
3816;DHT22;1923;48.154;11.536;2023-04-01T14:19:12;11.70;99.90
3816;DHT22;1923;48.154;11.536;2023-04-01T14:21:52;11.70;99.90
3816;DHT22;1923;48.154;11.536;2023-04-01T14:24:36;11.70;99.90
3816;DHT22;1923;48.154;11.536;2023-04-01T14:27:38;11.80;99.90
3816;DHT22;1923;48.154;11.536;2023-04-01T14:30:35;11.90;99.90
3816;DHT22;1923;48.154;11.536;2023-04-01T14:33:20;11.80;99.90
3816;DHT22;1923;48.154;11.536;2023-04-01T14:36:02;11.70;99.90
3816;DHT22;1923;48.154;11.536;2023-04-01T14:38:42;11.60;99.90
3816;DHT22;1923;48.154;11.536;2023-04-01T14:41:21;11.70;99.90
3816;DHT22;1923;48.154;11.536;2023-04-01T14:44:08;12.00;99.90
3816;DHT22;1923;48.154;11.536;2023-04-01T14:47:04;11.90;99.90
3816;DHT22;1923;48.154;11.536;2023-04-01T14:49:36;12.00;99.90
3816;DHT22;1923;48.154;11.536;2023-04-01T14:52:13;12.10;99.90
3816;DHT22;1923;48.154;11.536;2023-04-01T14:54:44;12.00;99.90
3816;DHT22;1923;48.154;11.536;2023-04-01T14:57:15;12.00;99.90
3816;DHT22;1923;48.154;11.536;2023-04-01T14:59:49;12.20;99.90
3816;DHT22;1923;48.154;11.536;2023-04-01T15:02:40;12.20;99.90
3816;DHT22;1923;48.154;11.536;2023-04-01T15:05:18;12.20;99.90
3816;DHT22;1923;48.154;11.536;2023-04-01T15:08:15;12.10;99.90
3816;DHT22;1923;48.154;11.536;2023-04-01T15:11:12;12.10;99.90
3816;DHT22;1923;48.154;11.536;2023-04-01T15:13:55;12.10;99.90
3816;DHT22;1923;48.154;11.536;2023-04-01T15:16:33;11.90;99.90
3816;DHT22;1923;48.154;11.536;2023-04-01T15:19:12;11.90;99.90
3816;DHT22;1923;48.154;11.536;2023-04-01T15:22:02;12.00;99.90
3816;DHT22;1923;48.154;11.536;2023-04-01T15:24:46;12.00;99.90
3816;DHT22;1923;48.154;11.536;2023-04-01T15:27:23;11.90;99.90
3816;DHT22;1923;48.154;11.536;2023-04-01T15:30:08;12.00;99.90
3816;DHT22;1923;48.154;11.536;2023-04-01T15:32:51;12.00;99.90
3816;DHT22;1923;48.154;11.536;2023-04-01T15:35:27;11.80;99.90
3816;DHT22;1923;48.154;11.536;2023-04-01T15:38:06;11.80;99.90
3816;DHT22;1923;48.154;11.536;2023-04-01T15:40:44;11.70;99.90
3816;DHT22;1923;48.154;11.536;2023-04-01T15:43:25;11.70;99.90
3816;DHT22;1923;48.154;11.536;2023-04-01T15:49:04;11.70;99.90
3816;DHT22;1923;48.154;11.536;2023-04-01T15:51:47;11.70;99.90
3816;DHT22;1923;48.154;11.536;2023-04-01T15:54:27;11.80;99.90
3816;DHT22;1923;48.154;11.536;2023-04-01T15:57:12;11.80;99.90
3816;DHT22;1923;48.154;11.536;2023-04-01T16:00:02;11.80;99.90
3816;DHT22;1923;48.154;11.536;2023-04-01T16:02:36;11.70;99.90
3816;DHT22;1923;48.154;11.536;2023-04-01T16:05:13;11.70;99.90
3816;DHT22;1923;48.154;11.536;2023-04-01T16:07:57;11.80;99.90
3816;DHT22;1923;48.154;11.536;2023-04-01T16:10:54;11.80;99.90
3816;DHT22;1923;48.154;11.536;2023-04-01T16:13:37;11.80;99.90
3816;DHT22;1923;48.154;11.536;2023-04-01T16:16:21;12.00;99.90
3816;DHT22;1923;48.154;11.536;2023-04-01T16:21:51;12.00;99.90
3816;DHT22;1923;48.154;11.536;2023-04-01T16:24:24;12.10;99.90
3816;DHT22;1923;48.154;11.536;2023-04-01T16:27:02;12.00;99.90
3816;DHT22;1923;48.154;11.536;2023-04-01T16:29:40;12.00;99.90
3816;DHT22;1923;48.154;11.536;2023-04-01T16:32:21;11.80;99.90
3816;DHT22;1923;48.154;11.536;2023-04-01T16:34:58;11.80;99.90
3816;DHT22;1923;48.154;11.536;2023-04-01T16:37:33;11.70;99.90
3816;DHT22;1923;48.154;11.536;2023-04-01T16:40:14;11.70;99.90
3816;DHT22;1923;48.154;11.536;2023-04-01T16:42:49;11.70;99.90
3816;DHT22;1923;48.154;11.536;2023-04-01T16:45:32;11.50;99.90
3816;DHT22;1923;48.154;11.536;2023-04-01T16:48:07;11.50;99.90
3816;DHT22;1923;48.154;11.536;2023-04-01T16:50:44;11.50;99.90
3816;DHT22;1923;48.154;11.536;2023-04-01T16:53:18;11.50;99.90
3816;DHT22;1923;48.154;11.536;2023-04-01T16:55:50;11.60;99.90
3816;DHT22;1923;48.154;11.536;2023-04-01T16:58:24;11.50;99.90
3816;DHT22;1923;48.154;11.536;2023-04-01T17:01:00;11.40;99.90
3816;DHT22;1923;48.154;11.536;2023-04-01T17:03:33;11.30;99.90
3816;DHT22;1923;48.154;11.536;2023-04-01T17:06:12;11.40;99.90
3816;DHT22;1923;48.154;11.536;2023-04-01T17:09:00;11.20;99.90
3816;DHT22;1923;48.154;11.536;2023-04-01T17:11:36;11.20;99.90
3816;DHT22;1923;48.154;11.536;2023-04-01T17:14:13;11.20;99.90
3816;DHT22;1923;48.154;11.536;2023-04-01T17:16:56;11.10;99.90
3816;DHT22;1923;48.154;11.536;2023-04-01T17:19:45;11.10;99.90
3816;DHT22;1923;48.154;11.536;2023-04-01T17:22:25;11.10;99.90
3816;DHT22;1923;48.154;11.536;2023-04-01T17:28:19;11.30;99.90
3816;DHT22;1923;48.154;11.536;2023-04-01T17:30:55;11.30;99.90
3816;DHT22;1923;48.154;11.536;2023-04-01T17:33:52;11.20;99.90
3816;DHT22;1923;48.154;11.536;2023-04-01T17:36:31;11.20;99.90
3816;DHT22;1923;48.154;11.536;2023-04-01T17:41:55;11.10;99.90
3816;DHT22;1923;48.154;11.536;2023-04-01T17:44:34;11.00;99.90
3816;DHT22;1923;48.154;11.536;2023-04-01T17:50:14;11.00;99.90
3816;DHT22;1923;48.154;11.536;2023-04-01T17:52:50;11.10;99.90
3816;DHT22;1923;48.154;11.536;2023-04-01T17:58:20;10.90;99.90
3816;DHT22;1923;48.154;11.536;2023-04-01T18:01:04;10.80;99.90
3816;DHT22;1923;48.154;11.536;2023-04-01T18:03:54;10.80;99.90
3816;DHT22;1923;48.154;11.536;2023-04-01T18:06:33;10.70;99.90
3816;DHT22;1923;48.154;11.536;2023-04-01T18:09:14;10.70;99.90
3816;DHT22;1923;48.154;11.536;2023-04-01T18:11:52;10.70;99.90
3816;DHT22;1923;48.154;11.536;2023-04-01T18:14:36;10.80;99.90
3816;DHT22;1923;48.154;11.536;2023-04-01T18:17:24;10.80;99.90
3816;DHT22;1923;48.154;11.536;2023-04-01T18:20:09;10.80;99.90
3816;DHT22;1923;48.154;11.536;2023-04-01T18:22:46;10.80;99.90
3816;DHT22;1923;48.154;11.536;2023-04-01T18:25:21;10.80;99.90
3816;DHT22;1923;48.154;11.536;2023-04-01T18:28:11;10.90;99.90
3816;DHT22;1923;48.154;11.536;2023-04-01T18:30:43;10.80;99.90
3816;DHT22;1923;48.154;11.536;2023-04-01T18:33:19;10.90;99.90
3816;DHT22;1923;48.154;11.536;2023-04-01T18:35:53;10.80;99.90
3816;DHT22;1923;48.154;11.536;2023-04-01T18:38:29;10.80;99.90
3816;DHT22;1923;48.154;11.536;2023-04-01T18:41:19;10.80;99.90
3816;DHT22;1923;48.154;11.536;2023-04-01T18:43:57;10.60;99.90
3816;DHT22;1923;48.154;11.536;2023-04-01T18:46:33;10.70;99.90
3816;DHT22;1923;48.154;11.536;2023-04-01T18:49:08;10.70;99.90
3816;DHT22;1923;48.154;11.536;2023-04-01T18:51:46;10.70;99.90
3816;DHT22;1923;48.154;11.536;2023-04-01T18:54:23;10.60;99.90
3816;DHT22;1923;48.154;11.536;2023-04-01T18:57:03;10.80;99.90
3816;DHT22;1923;48.154;11.536;2023-04-01T18:59:36;10.70;99.90
3816;DHT22;1923;48.154;11.536;2023-04-01T19:02:16;10.90;99.90
3816;DHT22;1923;48.154;11.536;2023-04-01T19:04:55;11.00;99.90
3816;DHT22;1923;48.154;11.536;2023-04-01T19:07:50;11.00;99.90
3816;DHT22;1923;48.154;11.536;2023-04-01T19:10:27;10.90;99.90
3816;DHT22;1923;48.154;11.536;2023-04-01T19:13:17;10.90;99.90
3816;DHT22;1923;48.154;11.536;2023-04-01T19:15:54;10.80;99.90
3816;DHT22;1923;48.154;11.536;2023-04-01T19:18:43;10.80;99.90
3816;DHT22;1923;48.154;11.536;2023-04-01T19:21:18;10.80;99.90
3816;DHT22;1923;48.154;11.536;2023-04-01T19:24:21;10.70;99.90
3816;DHT22;1923;48.154;11.536;2023-04-01T19:26:59;10.60;99.90
3816;DHT22;1923;48.154;11.536;2023-04-01T19:29:41;10.60;99.90
3816;DHT22;1923;48.154;11.536;2023-04-01T19:32:16;10.60;99.90
3816;DHT22;1923;48.154;11.536;2023-04-01T19:34:56;10.50;99.90
3816;DHT22;1923;48.154;11.536;2023-04-01T19:37:32;10.40;99.90
3816;DHT22;1923;48.154;11.536;2023-04-01T19:40:30;10.40;99.90
3816;DHT22;1923;48.154;11.536;2023-04-01T19:43:11;10.40;99.90
3816;DHT22;1923;48.154;11.536;2023-04-01T19:45:47;10.50;99.90
3816;DHT22;1923;48.154;11.536;2023-04-01T19:48:36;10.50;99.90
3816;DHT22;1923;48.154;11.536;2023-04-01T19:51:08;10.50;99.90
3816;DHT22;1923;48.154;11.536;2023-04-01T19:53:42;10.50;99.90
3816;DHT22;1923;48.154;11.536;2023-04-01T19:56:16;10.50;99.90
3816;DHT22;1923;48.154;11.536;2023-04-01T19:58:51;10.40;99.90
3816;DHT22;1923;48.154;11.536;2023-04-01T20:01:26;10.30;99.90
3816;DHT22;1923;48.154;11.536;2023-04-01T20:04:13;10.20;99.90
3816;DHT22;1923;48.154;11.536;2023-04-01T20:06:49;10.20;99.90
3816;DHT22;1923;48.154;11.536;2023-04-01T20:09:52;10.10;99.90
3816;DHT22;1923;48.154;11.536;2023-04-01T20:12:30;10.10;99.90
3816;DHT22;1923;48.154;11.536;2023-04-01T20:15:06;9.90;99.90
3816;DHT22;1923;48.154;11.536;2023-04-01T20:17:48;9.90;99.90
3816;DHT22;1923;48.154;11.536;2023-04-01T20:20:20;9.70;99.90
3816;DHT22;1923;48.154;11.536;2023-04-01T20:23:17;9.70;99.90
3816;DHT22;1923;48.154;11.536;2023-04-01T20:25:53;9.70;99.90
3816;DHT22;1923;48.154;11.536;2023-04-01T20:28:30;9.60;99.90
3816;DHT22;1923;48.154;11.536;2023-04-01T20:31:23;9.60;99.90
3816;DHT22;1923;48.154;11.536;2023-04-01T20:37:29;9.60;99.90
3816;DHT22;1923;48.154;11.536;2023-04-01T20:40:19;9.60;99.90
3816;DHT22;1923;48.154;11.536;2023-04-01T20:43:02;9.60;99.90
3816;DHT22;1923;48.154;11.536;2023-04-01T20:45:35;9.50;99.90
3816;DHT22;1923;48.154;11.536;2023-04-01T20:48:31;9.80;99.90
3816;DHT22;1923;48.154;11.536;2023-04-01T20:51:05;9.80;99.90
3816;DHT22;1923;48.154;11.536;2023-04-01T20:53:36;9.90;99.90
3816;DHT22;1923;48.154;11.536;2023-04-01T20:56:32;9.80;99.90
3816;DHT22;1923;48.154;11.536;2023-04-01T21:02:00;9.80;99.90
3816;DHT22;1923;48.154;11.536;2023-04-01T21:04:44;9.80;99.90
3816;DHT22;1923;48.154;11.536;2023-04-01T21:07:20;9.80;99.90
3816;DHT22;1923;48.154;11.536;2023-04-01T21:10:01;9.90;99.90
3816;DHT22;1923;48.154;11.536;2023-04-01T21:12:42;10.00;99.90
3816;DHT22;1923;48.154;11.536;2023-04-01T21:15:30;10.00;99.90
3816;DHT22;1923;48.154;11.536;2023-04-01T21:18:16;10.00;99.90
3816;DHT22;1923;48.154;11.536;2023-04-01T21:21:11;10.00;99.90
3816;DHT22;1923;48.154;11.536;2023-04-01T21:26:48;9.90;99.90
3816;DHT22;1923;48.154;11.536;2023-04-01T21:29:47;9.90;99.90
3816;DHT22;1923;48.154;11.536;2023-04-01T21:32:52;9.90;99.90
3816;DHT22;1923;48.154;11.536;2023-04-01T21:35:32;10.00;99.90
3816;DHT22;1923;48.154;11.536;2023-04-01T21:38:32;9.90;99.90
3816;DHT22;1923;48.154;11.536;2023-04-01T21:41:17;9.90;99.90
3816;DHT22;1923;48.154;11.536;2023-04-01T21:47:28;9.80;99.90
3816;DHT22;1923;48.154;11.536;2023-04-01T21:50:27;9.70;99.90
3816;DHT22;1923;48.154;11.536;2023-04-01T21:56:28;9.90;99.90
3816;DHT22;1923;48.154;11.536;2023-04-01T21:59:29;9.90;99.90
3816;DHT22;1923;48.154;11.536;2023-04-01T22:02:45;9.90;99.90
3816;DHT22;1923;48.154;11.536;2023-04-01T22:05:22;9.90;99.90
3816;DHT22;1923;48.154;11.536;2023-04-01T22:07:59;9.90;99.90
3816;DHT22;1923;48.154;11.536;2023-04-01T22:10:34;9.90;99.90
3816;DHT22;1923;48.154;11.536;2023-04-01T22:13:11;9.90;99.90
3816;DHT22;1923;48.154;11.536;2023-04-01T22:15:54;9.80;99.90
3816;DHT22;1923;48.154;11.536;2023-04-01T22:18:29;9.70;99.90
3816;DHT22;1923;48.154;11.536;2023-04-01T22:21:05;9.90;99.90
3816;DHT22;1923;48.154;11.536;2023-04-01T22:23:42;9.90;99.90
3816;DHT22;1923;48.154;11.536;2023-04-01T22:26:18;9.90;99.90
3816;DHT22;1923;48.154;11.536;2023-04-01T22:28:55;10.10;99.90
3816;DHT22;1923;48.154;11.536;2023-04-01T22:31:28;10.10;99.90
3816;DHT22;1923;48.154;11.536;2023-04-01T22:34:03;10.00;99.90
3816;DHT22;1923;48.154;11.536;2023-04-01T22:36:40;10.10;99.90
3816;DHT22;1923;48.154;11.536;2023-04-01T22:39:23;10.20;99.90
3816;DHT22;1923;48.154;11.536;2023-04-01T22:42:02;10.10;99.90
3816;DHT22;1923;48.154;11.536;2023-04-01T22:44:47;10.10;99.90
3816;DHT22;1923;48.154;11.536;2023-04-01T22:47:25;10.10;99.90
3816;DHT22;1923;48.154;11.536;2023-04-01T22:50:01;10.20;99.90
3816;DHT22;1923;48.154;11.536;2023-04-01T22:52:33;10.20;99.90
3816;DHT22;1923;48.154;11.536;2023-04-01T22:55:11;10.20;99.90
3816;DHT22;1923;48.154;11.536;2023-04-01T22:57:46;10.10;99.90
3816;DHT22;1923;48.154;11.536;2023-04-01T23:00:21;10.20;99.90
3816;DHT22;1923;48.154;11.536;2023-04-01T23:03:04;10.10;99.90
3816;DHT22;1923;48.154;11.536;2023-04-01T23:05:40;10.00;99.90
3816;DHT22;1923;48.154;11.536;2023-04-01T23:11:17;10.00;99.90
3816;DHT22;1923;48.154;11.536;2023-04-01T23:13:49;9.80;99.90
3816;DHT22;1923;48.154;11.536;2023-04-01T23:16:25;9.80;99.90
3816;DHT22;1923;48.154;11.536;2023-04-01T23:18:58;9.80;99.90
3816;DHT22;1923;48.154;11.536;2023-04-01T23:21:33;9.90;99.90
3816;DHT22;1923;48.154;11.536;2023-04-01T23:24:09;9.90;99.90
3816;DHT22;1923;48.154;11.536;2023-04-01T23:26:47;9.80;99.90
3816;DHT22;1923;48.154;11.536;2023-04-01T23:29:18;9.70;99.90
3816;DHT22;1923;48.154;11.536;2023-04-01T23:31:56;9.70;99.90
3816;DHT22;1923;48.154;11.536;2023-04-01T23:34:27;9.60;99.90
3816;DHT22;1923;48.154;11.536;2023-04-01T23:36:59;9.70;99.90
3816;DHT22;1923;48.154;11.536;2023-04-01T23:39:31;9.70;99.90
3816;DHT22;1923;48.154;11.536;2023-04-01T23:42:03;9.70;99.90
3816;DHT22;1923;48.154;11.536;2023-04-01T23:44:33;9.70;99.90
3816;DHT22;1923;48.154;11.536;2023-04-01T23:47:03;9.60;99.90
3816;DHT22;1923;48.154;11.536;2023-04-01T23:49:36;9.50;99.90
3816;DHT22;1923;48.154;11.536;2023-04-01T23:52:13;9.60;99.90
3816;DHT22;1923;48.154;11.536;2023-04-01T23:54:44;9.60;99.90
3816;DHT22;1923;48.154;11.536;2023-04-01T23:57:17;9.50;99.90
